This is the latest recevied weather packets stored in our database for station/object K0QED. If no packets are shown the sender has not sent any weather packets the latest 1 day(s).
| Time | Temp. | Humidity | Pressure | Rain* | Wind** | Luminosity | Snow |
|---|---|---|---|---|---|---|---|
| 1778103152 | 0.56° C | 85% | 1020 hPa | 0 mm | - | 628 W/m² | - |
| 1778100420 | 0° C | 90% | 1020.1 hPa | 0 mm | - | 311 W/m² | - |
| 1778099815 | -0.56° C | 90% | 1020.1 hPa | 0 mm | - | 354 W/m² | - |
| 1778099512 | 0.56° C | 90% | 1020.5 hPa | 1.27 mm | - | 350 W/m² | - |
| 1778099210 | -0.56° C | 89% | 1020.2 hPa | 1.27 mm | - | 413 W/m² | - |
| 1778098299 | 0° C | 91% | 1020.2 hPa | 0 mm | - | 204 W/m² | - |
| 1778097693 | -0.56° C | 90% | 1020.1 hPa | 0 mm | - | 135 W/m² | - |
| 1778094054 | 0° C | 90% | 1019.7 hPa | 0 mm | - | 254 W/m² | - |
| 1778093145 | -0.56° C | 93% | 1019.7 hPa | 0 mm | - | 182 W/m² | - |
| 1778092538 | -1.11° C | 92% | 1020.1 hPa | 0 mm | - | 118 W/m² | - |
| 1778090417 | -1.11° C | 93% | 1020.2 hPa | 0 mm | - | 132 W/m² | - |
| 1778089810 | -1.11° C | 94% | 1020.1 hPa | 0 mm | - | 89 W/m² | - |
| 1778087992 | -1.67° C | 94% | 1019.6 hPa | 0 mm | - | 72 W/m² | - |
| 1778087690 | -1.67° C | 94% | 1019.5 hPa | 0 mm | - | 73 W/m² | - |
| 1778087084 | -2.22° C | 94% | 1019.7 hPa | 0 mm | - | 65 W/m² | - |
| 1778085571 | -2.22° C | 95% | 1019.4 hPa | 0 mm | - | 59 W/m² | - |
| 1778084653 | -2.22° C | 95% | 1019.2 hPa | 0 mm | - | 65 W/m² | - |
| 1778081114 | -2.22° C | 96% | 1019 hPa | 0 mm | - | 79 W/m² | - |
| 1778079296 | -2.78° C | 97% | 1018.5 hPa | 0 mm | - | 63 W/m² | - |
| 1778078994 | -2.22° C | 98% | 1018.6 hPa | 0 mm | - | 57 W/m² | - |
| 1778078085 | -3.33° C | 98% | 1018.4 hPa | 0 mm | - | 46 W/m² | - |
| 1778077784 | -3.33° C | 98% | 1018.4 hPa | 0 mm | - | 36 W/m² | - |
| 1778077179 | -3.33° C | 98% | 1018.5 hPa | 0 mm | - | 30 W/m² | - |
| 1778075666 | -3.33° C | 98% | 1018.1 hPa | 0 mm | - | 52 W/m² | - |
| 1778075058 | -3.33° C | 98% | 1018.5 hPa | 0 mm | - | 41 W/m² | - |
* Rain latest hour (hover to see other rain measurements)
** Current wind speed in m/s (hover to see current wind gust speed)